createdAt,value
2022-10-22T00:00:00.927Z,14.41
2022-10-22T00:01:00.870Z,14.41
2022-10-22T00:02:00.869Z,14.45
2022-10-22T00:03:00.916Z,14.46
2022-10-22T00:04:00.886Z,14.55
2022-10-22T00:05:00.847Z,14.63
2022-10-22T00:06:00.827Z,14.58
2022-10-22T00:07:00.825Z,14.48
2022-10-22T00:08:00.806Z,14.56
2022-10-22T00:09:00.907Z,14.51
2022-10-22T00:10:00.809Z,14.69
2022-10-22T00:11:00.791Z,14.67
2022-10-22T00:12:00.766Z,14.67
2022-10-22T00:13:00.765Z,14.67
2022-10-22T00:14:00.759Z,14.51
2022-10-22T00:15:00.779Z,14.52
2022-10-22T00:16:00.734Z,14.48
2022-10-22T00:17:00.730Z,14.36
2022-10-22T00:18:00.735Z,14.38
2022-10-22T00:19:00.715Z,14.38
2022-10-22T00:20:00.717Z,14.40
2022-10-22T00:21:00.720Z,14.36
2022-10-22T00:22:00.696Z,14.40
2022-10-22T00:23:00.683Z,14.34
2022-10-22T00:24:00.679Z,14.49
2022-10-22T00:25:00.662Z,14.55
2022-10-22T00:26:01.449Z,14.63
2022-10-22T00:27:00.690Z,14.64
2022-10-22T00:28:00.642Z,14.71
2022-10-22T00:29:00.640Z,14.74
2022-10-22T00:30:00.621Z,14.77
2022-10-22T00:31:00.631Z,14.74
2022-10-22T00:32:00.622Z,14.73
2022-10-22T00:33:00.636Z,14.69
2022-10-22T00:34:00.603Z,14.64
2022-10-22T00:35:00.598Z,14.70
2022-10-22T00:36:00.577Z,14.69
2022-10-22T00:37:00.581Z,14.69
2022-10-22T00:38:00.576Z,14.63
2022-10-22T00:39:00.575Z,14.64
2022-10-22T00:40:00.542Z,14.70
2022-10-22T00:42:00.541Z,14.77
2022-10-22T00:43:00.510Z,14.74
2022-10-22T00:44:00.506Z,14.66
2022-10-22T00:45:00.518Z,14.67
2022-10-22T00:46:00.494Z,14.73
2022-10-22T00:47:00.483Z,14.64
2022-10-22T00:48:00.496Z,14.73
2022-10-22T00:49:00.466Z,14.77
2022-10-22T00:50:00.531Z,14.85
2022-10-22T00:51:00.462Z,14.85
2022-10-22T00:52:00.437Z,14.78
2022-10-22T00:53:00.723Z,14.90
2022-10-22T00:54:00.446Z,14.86
2022-10-22T00:55:00.425Z,14.85
2022-10-22T00:56:00.415Z,14.89
2022-10-22T00:57:00.398Z,14.83
2022-10-22T00:58:00.390Z,14.97
2022-10-22T00:59:00.410Z,14.90
2022-10-22T01:00:00.383Z,14.87
2022-10-22T01:01:00.444Z,14.79
2022-10-22T01:02:00.350Z,14.74
2022-10-22T01:03:00.342Z,14.66
2022-10-22T01:04:00.348Z,14.64
2022-10-22T01:05:00.328Z,14.59
2022-10-22T01:06:00.354Z,14.53
2022-10-22T01:07:00.325Z,14.55
2022-10-22T01:08:00.394Z,14.51
2022-10-22T01:09:00.330Z,14.51
2022-10-22T01:10:00.291Z,14.48
2022-10-22T01:11:00.276Z,14.58
2022-10-22T01:12:00.294Z,14.55
2022-10-22T01:13:00.274Z,14.59
2022-10-22T01:14:00.284Z,14.51
2022-10-22T01:15:00.247Z,14.52
2022-10-22T01:16:00.242Z,14.49
2022-10-22T01:17:00.231Z,14.48
2022-10-22T01:18:00.249Z,14.58
2022-10-22T01:19:00.212Z,14.52
2022-10-22T01:20:00.227Z,14.56
2022-10-22T01:21:00.189Z,14.51
2022-10-22T01:22:00.190Z,14.51
2022-10-22T01:23:00.176Z,14.53
2022-10-22T01:24:00.188Z,14.58
2022-10-22T01:25:00.189Z,14.59
2022-10-22T01:26:00.154Z,14.51
2022-10-22T01:27:00.142Z,14.61
2022-10-22T01:28:00.160Z,14.63
2022-10-22T01:29:00.159Z,14.49
2022-10-22T01:30:00.127Z,14.48
2022-10-22T01:31:00.114Z,14.41
2022-10-22T01:32:00.109Z,14.41
2022-10-22T01:33:00.105Z,14.37
2022-10-22T01:34:00.097Z,14.31
2022-10-22T01:35:00.112Z,14.30
2022-10-22T01:36:00.124Z,14.37
2022-10-22T01:37:00.078Z,14.34
2022-10-22T01:38:00.062Z,14.19
2022-10-22T01:39:00.044Z,14.28
2022-10-22T01:40:00.041Z,14.30
2022-10-22T01:41:00.053Z,14.33
2022-10-22T01:42:00.023Z,14.40
2022-10-22T01:43:00.014Z,14.37
2022-10-22T01:44:00.004Z,14.41
2022-10-22T01:45:00.014Z,14.46
2022-10-22T01:45:59.989Z,14.49
2022-10-22T01:47:00.002Z,14.52
2022-10-22T01:47:59.981Z,14.59
2022-10-22T01:48:59.973Z,14.58
2022-10-22T01:49:59.961Z,14.52
2022-10-22T01:50:59.981Z,14.44
2022-10-22T01:51:59.952Z,14.37
2022-10-22T01:52:59.930Z,14.33
2022-10-22T01:53:59.931Z,14.33
2022-10-22T01:54:59.917Z,14.23
2022-10-22T01:55:59.914Z,14.12
2022-10-22T01:56:59.929Z,14.22
2022-10-22T01:57:59.902Z,14.09
2022-10-22T01:58:59.891Z,14.09
2022-10-22T01:59:59.886Z,14.05
2022-10-22T02:00:59.945Z,14.00
2022-10-22T02:01:59.879Z,13.97
2022-10-22T02:02:59.905Z,14.04
2022-10-22T02:04:00.485Z,14.03
2022-10-22T02:04:59.850Z,14.05
2022-10-22T02:05:59.830Z,14.03
2022-10-22T02:06:59.847Z,14.01
2022-10-22T02:07:59.828Z,14.08
2022-10-22T02:08:59.851Z,14.01
2022-10-22T02:09:59.857Z,14.08
2022-10-22T02:10:59.805Z,14.08
2022-10-22T02:11:59.833Z,14.08
2022-10-22T02:12:59.818Z,14.04
2022-10-22T02:13:59.785Z,13.98
2022-10-22T02:14:59.769Z,14.00
2022-10-22T02:15:59.804Z,13.88
2022-10-22T02:16:59.768Z,13.91
2022-10-22T02:17:59.748Z,14.01
2022-10-22T02:18:59.743Z,13.97
2022-10-22T02:19:59.785Z,13.97
2022-10-22T02:20:59.755Z,13.88
2022-10-22T02:21:59.727Z,13.90
2022-10-22T02:22:59.695Z,13.90
2022-10-22T02:23:59.703Z,14.00
2022-10-22T02:24:59.717Z,13.93
2022-10-22T02:27:10.993Z,14.01
2022-10-22T02:28:11.001Z,14.09
2022-10-22T02:29:10.988Z,13.97
2022-10-22T02:30:11.022Z,14.05
2022-10-22T02:31:10.965Z,14.01
2022-10-22T02:32:10.978Z,14.05
2022-10-22T02:33:10.960Z,14.03
2022-10-22T02:34:10.949Z,14.08
2022-10-22T02:35:10.940Z,14.09
2022-10-22T02:36:10.945Z,14.16
2022-10-22T02:37:10.969Z,14.09
2022-10-22T02:38:10.929Z,14.16
2022-10-22T02:39:11.009Z,14.09
2022-10-22T02:40:10.914Z,14.18
2022-10-22T02:41:10.885Z,14.15
2022-10-22T02:42:10.882Z,14.15
2022-10-22T02:43:10.897Z,14.30
2022-10-22T02:44:10.885Z,14.23
2022-10-22T02:45:10.902Z,14.19
2022-10-22T02:46:10.849Z,14.23
2022-10-22T02:47:10.838Z,14.23
2022-10-22T02:48:10.958Z,14.30
2022-10-22T02:49:10.855Z,14.26
2022-10-22T02:50:10.828Z,14.26
2022-10-22T02:51:10.842Z,14.28
2022-10-22T02:52:10.814Z,14.28
2022-10-22T02:53:10.811Z,14.26
2022-10-22T02:54:10.795Z,14.23
2022-10-22T02:55:10.780Z,14.26
2022-10-22T02:56:10.803Z,14.23
2022-10-22T02:57:10.852Z,14.26
2022-10-22T02:58:10.769Z,14.23
2022-10-22T02:59:10.743Z,14.26
2022-10-22T03:00:10.740Z,14.26
2022-10-22T03:01:13.754Z,14.23
2022-10-22T03:02:11.784Z,14.22
2022-10-22T03:03:10.724Z,14.23
2022-10-22T03:04:10.721Z,14.19
2022-10-22T03:05:10.713Z,14.27
2022-10-22T03:06:10.697Z,14.05
2022-10-22T03:07:10.685Z,14.19
2022-10-22T03:08:10.751Z,14.21
2022-10-22T03:09:10.673Z,14.21
2022-10-22T03:10:10.676Z,14.23
2022-10-22T03:11:10.662Z,14.11
2022-10-22T03:12:10.649Z,14.11
2022-10-22T03:13:10.638Z,14.12
2022-10-22T03:14:10.678Z,14.16
2022-10-22T03:15:10.618Z,14.09
2022-10-22T03:16:10.614Z,14.08
2022-10-22T03:17:10.605Z,14.00
2022-10-22T03:18:10.609Z,14.09
2022-10-22T03:19:10.587Z,14.08
2022-10-22T03:20:10.606Z,13.96
2022-10-22T03:21:10.576Z,14.03
2022-10-22T03:22:10.565Z,13.96
2022-10-22T03:23:10.561Z,13.96
2022-10-22T03:24:10.553Z,13.90
2022-10-22T03:25:10.570Z,13.98
2022-10-22T03:26:10.537Z,13.93
2022-10-22T03:27:10.518Z,13.97
2022-10-22T03:28:10.526Z,13.91
2022-10-22T03:29:10.526Z,14.00
2022-10-22T03:30:10.500Z,14.05
2022-10-22T03:31:10.522Z,14.00
2022-10-22T03:32:10.486Z,14.03
2022-10-22T03:33:10.478Z,13.97
2022-10-22T03:34:10.480Z,14.00
2022-10-22T03:35:10.468Z,13.97
2022-10-22T03:36:10.482Z,13.93
2022-10-22T03:37:10.442Z,14.03
2022-10-22T03:38:10.435Z,14.08
2022-10-22T03:39:10.429Z,14.05
2022-10-22T03:40:10.424Z,14.11
2022-10-22T03:41:10.429Z,14.08
2022-10-22T03:42:10.415Z,14.00
2022-10-22T03:43:10.398Z,13.94
2022-10-22T03:44:10.391Z,13.85
2022-10-22T03:45:10.388Z,13.91
2022-10-22T03:46:10.380Z,13.93
2022-10-22T03:47:10.441Z,13.94
2022-10-22T03:48:10.368Z,13.98
2022-10-22T03:49:10.352Z,14.00
2022-10-22T03:50:10.357Z,13.96
2022-10-22T03:51:10.346Z,13.88
2022-10-22T03:52:10.350Z,13.86
2022-10-22T03:53:10.339Z,13.93
2022-10-22T03:54:10.321Z,13.93
2022-10-22T03:55:10.308Z,13.82
2022-10-22T03:56:10.305Z,13.85
2022-10-22T03:57:10.288Z,13.90
2022-10-22T03:58:10.282Z,13.91
2022-10-22T03:59:10.300Z,13.90
2022-10-22T04:00:10.278Z,13.90
2022-10-22T04:01:10.303Z,13.82
2022-10-22T04:02:10.250Z,13.88
2022-10-22T04:03:10.245Z,13.94
2022-10-22T04:04:10.241Z,13.78
2022-10-22T04:05:10.354Z,13.80
2022-10-22T04:06:10.244Z,13.83
2022-10-22T04:07:10.217Z,13.97
2022-10-22T04:08:10.219Z,13.90
2022-10-22T04:09:10.265Z,13.91
2022-10-22T04:10:10.181Z,13.79
2022-10-22T04:11:10.196Z,13.88
2022-10-22T04:12:10.172Z,13.86
2022-10-22T04:13:10.177Z,13.79
2022-10-22T04:14:10.165Z,13.93
2022-10-22T04:15:10.146Z,13.82
2022-10-22T04:16:10.162Z,13.90
2022-10-22T04:17:10.136Z,13.96
2022-10-22T04:18:10.126Z,13.88
2022-10-22T04:19:10.127Z,13.83
2022-10-22T04:20:10.115Z,13.86
2022-10-22T04:21:10.100Z,13.78
2022-10-22T04:22:10.109Z,13.88
2022-10-22T04:23:10.082Z,13.88
2022-10-22T04:24:10.071Z,13.96
2022-10-22T04:25:10.061Z,13.98
2022-10-22T04:26:10.066Z,13.97
2022-10-22T04:27:10.053Z,13.91
2022-10-22T04:28:10.073Z,13.97
2022-10-22T04:29:13.377Z,13.96
2022-10-22T04:30:11.132Z,13.97
2022-10-22T04:31:10.034Z,13.94
2022-10-22T04:32:10.029Z,13.94
2022-10-22T04:33:10.004Z,13.97
2022-10-22T04:34:10.018Z,13.94
2022-10-22T04:35:09.985Z,14.01
2022-10-22T04:36:09.982Z,13.94
2022-10-22T04:37:09.971Z,14.03
2022-10-22T04:38:09.964Z,13.98
2022-10-22T04:39:09.959Z,13.96
2022-10-22T04:40:10.005Z,13.96
2022-10-22T04:41:09.951Z,14.04
2022-10-22T04:42:09.937Z,14.03
2022-10-22T04:43:09.929Z,13.96
2022-10-22T04:44:12.417Z,14.00
2022-10-22T04:45:10.945Z,13.94
2022-10-22T04:46:09.915Z,13.96
2022-10-22T04:47:09.899Z,14.01
2022-10-22T04:48:09.892Z,13.97
2022-10-22T04:49:09.878Z,13.91
2022-10-22T04:50:09.874Z,13.93
2022-10-22T04:51:09.896Z,13.96
2022-10-22T04:52:09.857Z,14.05
2022-10-22T04:53:09.843Z,13.96
2022-10-22T04:54:09.839Z,14.00
2022-10-22T04:55:09.821Z,13.98
2022-10-22T04:56:09.864Z,14.01
2022-10-22T04:57:09.843Z,13.97
2022-10-22T04:58:09.817Z,14.15
2022-10-22T04:59:09.800Z,14.09
2022-10-22T05:00:09.805Z,14.08
2022-10-22T05:01:09.806Z,14.04
2022-10-22T05:02:09.784Z,14.16
2022-10-22T05:03:09.864Z,14.04
2022-10-22T05:04:09.758Z,14.08
2022-10-22T05:05:09.749Z,14.08
2022-10-22T05:06:09.771Z,14.03
2022-10-22T05:07:09.753Z,14.21
2022-10-22T05:08:09.745Z,14.03
2022-10-22T05:09:09.768Z,14.08
2022-10-22T05:10:09.705Z,14.08
2022-10-22T05:11:09.694Z,14.03
2022-10-22T05:12:09.717Z,14.08
2022-10-22T05:13:09.691Z,14.12
2022-10-22T05:14:09.721Z,14.09
2022-10-22T05:15:09.677Z,14.12
2022-10-22T05:16:09.670Z,14.05
2022-10-22T05:17:09.663Z,14.03
2022-10-22T05:18:09.653Z,14.03
2022-10-22T05:19:09.662Z,14.08
2022-10-22T05:20:09.629Z,14.04
2022-10-22T05:21:09.630Z,14.08
2022-10-22T05:22:09.614Z,14.04
2022-10-22T05:23:09.607Z,14.01
2022-10-22T05:24:09.598Z,14.03
2022-10-22T05:25:09.615Z,14.19
2022-10-22T05:26:09.586Z,14.03
2022-10-22T05:27:09.627Z,14.08
2022-10-22T05:28:09.575Z,14.08
2022-10-22T05:29:09.562Z,14.09
2022-10-22T05:30:09.555Z,14.03
2022-10-22T05:31:09.583Z,14.09
2022-10-22T05:32:09.551Z,14.05
2022-10-22T05:33:09.537Z,14.03
2022-10-22T05:34:09.522Z,14.03
2022-10-22T05:35:09.512Z,14.01
2022-10-22T05:36:09.524Z,14.04
2022-10-22T05:37:09.491Z,13.96
2022-10-22T05:38:09.492Z,14.00
2022-10-22T05:39:09.480Z,14.01
2022-10-22T05:40:19.116Z,14.04
2022-10-22T05:41:10.484Z,13.88
2022-10-22T05:42:09.467Z,14.00
2022-10-22T05:43:09.447Z,13.98
2022-10-22T05:44:09.439Z,13.93
2022-10-22T05:45:09.440Z,13.97
2022-10-22T05:46:09.427Z,13.93
2022-10-22T05:47:09.452Z,13.79
2022-10-22T05:48:09.430Z,13.86
2022-10-22T05:49:09.406Z,13.76
2022-10-22T05:50:09.390Z,13.86
2022-10-22T05:51:09.379Z,13.80
2022-10-22T05:52:09.377Z,13.82
2022-10-22T05:53:09.371Z,13.85
2022-10-22T05:54:09.372Z,13.82
2022-10-22T05:55:09.349Z,13.82
2022-10-22T05:56:09.338Z,13.76
2022-10-22T05:57:09.332Z,13.72
2022-10-22T05:58:09.324Z,13.80
2022-10-22T05:59:09.332Z,13.73
2022-10-22T06:00:11.701Z,13.72
2022-10-22T06:01:09.303Z,13.76
2022-10-22T06:02:09.343Z,13.68
2022-10-22T06:03:09.286Z,13.68
2022-10-22T06:04:09.302Z,13.65
2022-10-22T06:05:09.270Z,13.68
2022-10-22T06:06:09.264Z,13.72
2022-10-22T06:07:09.248Z,13.65
2022-10-22T06:08:09.277Z,13.58
2022-10-22T06:09:09.370Z,13.49
2022-10-22T06:10:09.430Z,13.61
2022-10-22T06:11:09.214Z,13.57
2022-10-22T06:12:09.411Z,13.58
2022-10-22T06:13:09.257Z,13.58
2022-10-22T06:14:09.190Z,13.55
2022-10-22T06:15:09.242Z,13.54
2022-10-22T06:16:09.178Z,13.58
2022-10-22T06:17:09.389Z,13.61
2022-10-22T06:18:09.167Z,13.55
2022-10-22T06:19:09.221Z,13.54
2022-10-22T06:20:09.155Z,13.49
2022-10-22T06:21:09.204Z,13.54
2022-10-22T06:22:09.135Z,13.55
2022-10-22T06:23:09.150Z,13.49
2022-10-22T06:24:09.131Z,13.47
2022-10-22T06:25:09.141Z,13.47
2022-10-22T06:26:09.095Z,13.53
2022-10-22T06:27:09.129Z,13.51
2022-10-22T06:28:09.095Z,13.53
2022-10-22T06:29:09.155Z,13.53
2022-10-22T06:30:09.081Z,13.49
2022-10-22T06:31:09.223Z,13.47
2022-10-22T06:32:09.061Z,13.39
2022-10-22T06:33:09.044Z,13.53
2022-10-22T06:34:09.300Z,13.45
2022-10-22T06:35:09.037Z,13.40
2022-10-22T06:36:09.019Z,13.42
2022-10-22T06:37:09.026Z,13.45
2022-10-22T06:38:09.030Z,13.40
2022-10-22T06:39:09.003Z,13.40
2022-10-22T06:40:08.998Z,13.27
2022-10-22T06:41:08.993Z,13.40
2022-10-22T06:42:08.969Z,13.27
2022-10-22T06:43:08.996Z,13.29
2022-10-22T06:44:09.096Z,13.42
2022-10-22T06:45:08.953Z,13.26
2022-10-22T06:46:08.957Z,13.20
2022-10-22T06:47:08.933Z,13.26
2022-10-22T06:48:08.924Z,13.20
2022-10-22T06:49:08.927Z,13.24
2022-10-22T06:50:08.925Z,13.29
2022-10-22T06:51:08.902Z,13.32
2022-10-22T06:52:09.007Z,13.21
2022-10-22T06:53:08.906Z,13.27
2022-10-22T06:54:08.885Z,13.39
2022-10-22T06:55:08.869Z,13.53
2022-10-22T06:56:08.896Z,13.65
2022-10-22T06:57:08.891Z,13.67
2022-10-22T06:58:08.860Z,13.73
2022-10-22T06:59:08.839Z,13.86
2022-10-22T07:00:08.844Z,13.78
2022-10-22T07:01:08.883Z,13.88
2022-10-22T07:02:08.830Z,13.88
2022-10-22T07:03:08.820Z,13.96
2022-10-22T07:04:08.817Z,13.97
2022-10-22T07:05:08.783Z,13.97
2022-10-22T07:06:08.772Z,14.00
2022-10-22T07:07:08.783Z,13.93
2022-10-22T07:08:08.764Z,14.01
2022-10-22T07:09:08.816Z,14.12
2022-10-22T07:10:08.748Z,14.12
2022-10-22T07:11:08.738Z,14.05
2022-10-22T07:12:08.735Z,14.18
2022-10-22T07:13:08.775Z,14.23
2022-10-22T07:14:08.726Z,14.26
2022-10-22T07:15:08.704Z,14.21
2022-10-22T07:16:08.743Z,14.40
2022-10-22T07:17:08.940Z,14.38
2022-10-22T07:18:09.926Z,14.38
2022-10-22T07:19:08.706Z,14.38
2022-10-22T07:20:08.697Z,14.34
2022-10-22T07:21:08.670Z,14.28
2022-10-22T07:22:08.657Z,14.36
2022-10-22T07:23:08.649Z,14.34
2022-10-22T07:24:08.663Z,14.37
2022-10-22T07:25:08.640Z,14.41
2022-10-22T07:26:08.625Z,14.41
2022-10-22T07:27:10.969Z,14.38
2022-10-22T07:28:08.625Z,14.52
2022-10-22T07:29:09.509Z,14.56
2022-10-22T07:30:08.594Z,14.52
2022-10-22T07:31:08.609Z,14.67
2022-10-22T07:32:08.612Z,14.79
2022-10-22T07:33:08.563Z,15.17
2022-10-22T07:37:02.619Z,16.64
2022-10-22T07:38:02.591Z,16.42
2022-10-22T07:39:02.583Z,16.17
2022-10-22T07:40:03.931Z,15.95
2022-10-22T07:41:02.551Z,15.73
2022-10-22T07:42:02.544Z,15.43
2022-10-22T07:43:02.563Z,15.19
2022-10-22T07:44:02.536Z,15.11
2022-10-22T07:45:02.525Z,14.97
2022-10-22T07:46:02.505Z,14.86
2022-10-22T07:47:02.494Z,14.87
2022-10-22T07:48:02.499Z,14.90
2022-10-22T07:49:02.922Z,14.92
2022-10-22T07:50:02.479Z,14.86
2022-10-22T07:51:02.469Z,14.73
2022-10-22T07:52:02.459Z,14.67
2022-10-22T07:53:02.456Z,14.64
2022-10-22T07:54:02.454Z,14.67
2022-10-22T07:55:02.574Z,14.71
2022-10-22T07:56:02.427Z,14.70
2022-10-22T07:57:02.416Z,14.63
2022-10-22T07:58:02.409Z,14.74
2022-10-22T08:00:02.391Z,14.63
2022-10-22T08:01:02.458Z,14.66
2022-10-22T08:02:03.123Z,14.70
2022-10-22T08:03:02.378Z,14.71
2022-10-22T08:04:02.370Z,14.71
2022-10-22T08:05:02.345Z,14.73
2022-10-22T08:06:02.331Z,14.73
2022-10-22T08:07:02.335Z,14.67
2022-10-22T08:08:02.329Z,14.70
2022-10-22T08:09:02.370Z,14.73
2022-10-22T08:10:02.308Z,14.74
2022-10-22T08:11:02.316Z,14.74
2022-10-22T08:12:02.333Z,14.59
2022-10-22T08:13:02.278Z,14.64
2022-10-22T08:14:02.268Z,14.66
2022-10-22T08:15:02.257Z,14.55
2022-10-22T08:16:02.267Z,14.66
2022-10-22T08:17:02.415Z,14.61
2022-10-22T08:18:02.449Z,14.59
2022-10-22T08:19:03.141Z,14.59
2022-10-22T08:20:02.213Z,14.64
2022-10-22T08:21:02.197Z,14.74
2022-10-22T08:22:02.410Z,14.61
2022-10-22T08:23:02.206Z,14.66
2022-10-22T08:24:02.292Z,14.67
2022-10-22T08:25:02.176Z,14.71
2022-10-22T08:26:02.194Z,14.69
2022-10-22T08:27:02.161Z,14.70
2022-10-22T08:28:02.181Z,14.69
2022-10-22T08:29:02.246Z,14.73
2022-10-22T08:30:02.838Z,14.85
2022-10-22T08:31:02.131Z,14.73
2022-10-22T08:32:02.141Z,14.96
2022-10-22T08:33:02.100Z,14.96
2022-10-22T08:34:02.100Z,14.87
2022-10-22T08:35:02.302Z,15.05
2022-10-22T08:36:02.077Z,14.90
2022-10-22T08:37:02.245Z,15.11
2022-10-22T08:38:02.367Z,15.05
2022-10-22T08:39:02.055Z,15.19
2022-10-22T08:40:02.073Z,15.29
2022-10-22T08:41:02.121Z,15.36
2022-10-22T08:42:02.094Z,15.41
2022-10-22T08:43:02.046Z,15.51
2022-10-22T08:44:02.046Z,15.47
2022-10-22T08:45:02.007Z,15.62
2022-10-22T08:46:03.083Z,15.66
2022-10-22T08:47:02.025Z,15.52
2022-10-22T08:48:01.983Z,15.69
2022-10-22T08:49:02.041Z,15.54
2022-10-22T08:50:01.953Z,15.54
2022-10-22T08:51:01.958Z,15.41
2022-10-22T08:52:01.963Z,15.40
2022-10-22T08:53:01.947Z,15.38
2022-10-22T08:54:01.951Z,15.22
2022-10-22T08:55:02.053Z,15.17
2022-10-22T08:56:01.899Z,15.26
2022-10-22T08:57:01.938Z,15.19
2022-10-22T08:58:01.888Z,15.12
2022-10-22T08:59:01.884Z,15.12
2022-10-22T09:00:01.909Z,15.22
2022-10-22T09:01:09.416Z,15.19
2022-10-22T09:02:01.863Z,15.11
2022-10-22T09:03:01.844Z,15.17
2022-10-22T09:04:01.907Z,15.19
2022-10-22T09:05:01.845Z,15.19
2022-10-22T09:06:01.855Z,15.25
2022-10-22T09:07:01.805Z,15.20
2022-10-22T09:08:01.823Z,15.19
2022-10-22T09:09:01.855Z,15.22
2022-10-22T09:10:01.802Z,15.27
2022-10-22T09:11:01.783Z,15.33
2022-10-22T09:12:01.765Z,15.30
2022-10-22T09:13:01.791Z,15.15
2022-10-22T09:14:01.910Z,15.20
2022-10-22T09:15:01.761Z,15.30
2022-10-22T09:16:01.766Z,15.36
2022-10-22T09:17:01.723Z,15.40
2022-10-22T09:18:02.791Z,15.44
2022-10-22T09:19:01.758Z,15.30
2022-10-22T09:20:01.802Z,15.32
2022-10-22T09:21:01.699Z,15.33
2022-10-22T09:22:01.705Z,15.41
2022-10-22T09:23:01.663Z,15.38
2022-10-22T09:24:01.663Z,15.41
2022-10-22T09:25:01.682Z,15.43
2022-10-22T09:26:01.639Z,15.38
2022-10-22T09:27:01.640Z,15.47
2022-10-22T09:28:01.627Z,15.35
2022-10-22T09:29:01.644Z,15.36
2022-10-22T09:30:01.755Z,15.47
2022-10-22T09:31:01.686Z,15.43
2022-10-22T09:32:01.653Z,15.43
2022-10-22T09:33:01.581Z,15.38
2022-10-22T09:34:01.580Z,15.51
2022-10-22T09:35:01.561Z,15.40
2022-10-22T09:36:01.569Z,15.41
2022-10-22T09:37:01.548Z,15.48
2022-10-22T09:38:01.531Z,15.51
2022-10-22T09:39:01.527Z,15.54
2022-10-22T09:40:01.551Z,15.68
2022-10-22T09:41:01.509Z,15.69
2022-10-22T09:42:01.496Z,15.70
2022-10-22T09:43:01.502Z,15.69
2022-10-22T09:44:01.479Z,15.63
2022-10-22T09:45:01.734Z,15.66
2022-10-22T09:46:01.491Z,15.69
2022-10-22T09:47:01.478Z,15.59
2022-10-22T09:48:02.346Z,15.73
2022-10-22T09:49:01.499Z,15.63
2022-10-22T09:50:01.428Z,15.72
2022-10-22T09:51:04.191Z,15.78
2022-10-22T09:52:03.632Z,15.76
2022-10-22T09:53:02.601Z,15.83
2022-10-22T09:54:03.385Z,15.73
2022-10-22T09:55:01.417Z,15.77
2022-10-22T09:56:01.494Z,15.72
2022-10-22T09:57:01.705Z,15.87
2022-10-22T09:58:01.390Z,15.85
2022-10-22T09:59:01.546Z,15.81
2022-10-22T10:00:01.342Z,16.00
2022-10-22T10:01:01.343Z,15.98
2022-10-22T10:02:13.427Z,15.88
2022-10-22T10:03:02.360Z,15.80
2022-10-22T10:04:04.432Z,15.58
2022-10-22T10:05:01.297Z,15.47
2022-10-22T10:06:04.818Z,15.54
2022-10-22T10:07:01.274Z,15.51
2022-10-22T10:08:01.574Z,15.54
2022-10-22T10:09:01.538Z,15.78
2022-10-22T10:10:01.277Z,15.73
2022-10-22T10:11:01.241Z,15.87
2022-10-22T10:12:01.426Z,15.87
2022-10-22T10:13:01.228Z,15.99
2022-10-22T10:14:01.405Z,16.14
2022-10-22T10:15:05.466Z,16.32
2022-10-22T10:16:01.211Z,16.40
2022-10-22T10:17:01.267Z,16.46
2022-10-22T10:18:01.166Z,16.58
2022-10-22T10:19:01.162Z,16.57
2022-10-22T10:20:03.778Z,16.65
2022-10-22T10:21:01.202Z,16.51
2022-10-22T10:22:01.160Z,16.70
2022-10-22T10:23:01.138Z,16.70
2022-10-22T10:24:01.141Z,16.65
2022-10-22T10:25:01.129Z,16.79
2022-10-22T10:26:01.120Z,16.70
2022-10-22T10:27:01.117Z,16.82
2022-10-22T10:28:01.095Z,16.79
2022-10-22T10:29:01.111Z,16.76
2022-10-22T10:30:01.133Z,16.83
2022-10-22T10:31:01.129Z,16.95
2022-10-22T10:32:01.086Z,17.06
2022-10-22T10:33:01.073Z,17.06
2022-10-22T10:34:01.049Z,17.04
2022-10-22T10:35:01.035Z,17.13
2022-10-22T10:36:01.015Z,17.24
2022-10-22T10:37:01.014Z,17.32
2022-10-22T10:38:01.224Z,18.54
2022-10-22T10:39:01.040Z,18.91
2022-10-22T10:40:01.133Z,19.78
2022-10-22T10:41:00.992Z,20.60
2022-10-22T10:42:01.037Z,21.13
2022-10-22T10:43:01.077Z,21.59
2022-10-22T10:44:01.163Z,21.97
2022-10-22T10:45:01.027Z,20.95
2022-10-22T10:46:00.936Z,21.51
2022-10-22T10:47:00.923Z,21.94
2022-10-22T10:48:00.933Z,21.98
2022-10-22T10:49:00.920Z,20.93
2022-10-22T10:50:00.903Z,21.40
2022-10-22T10:51:00.904Z,21.03
2022-10-22T10:52:01.172Z,22.11
2022-10-22T10:53:01.210Z,22.66
2022-10-22T10:54:00.911Z,22.49
2022-10-22T10:55:00.874Z,23.01
2022-10-22T10:56:00.883Z,22.55
2022-10-22T10:57:00.850Z,23.04
2022-10-22T10:58:00.833Z,22.52
2022-10-22T10:59:00.826Z,22.74
2022-10-22T11:00:00.825Z,23.37
2022-10-22T11:01:00.814Z,22.85
2022-10-22T11:02:00.857Z,23.36
2022-10-22T11:03:00.809Z,23.17
2022-10-22T11:04:00.801Z,22.62
2022-10-22T11:05:00.793Z,22.85
2022-10-22T11:06:00.817Z,23.48
2022-10-22T11:07:10.965Z,23.04
2022-10-22T11:08:01.762Z,23.17
2022-10-22T11:09:00.849Z,23.91
2022-10-22T11:10:00.777Z,23.51
2022-10-22T11:11:00.748Z,23.60
2022-10-22T11:12:00.751Z,23.37
2022-10-22T11:13:00.924Z,23.91
2022-10-22T11:14:00.721Z,24.07
2022-10-22T11:15:00.710Z,24.08
2022-10-22T11:16:00.738Z,22.89
2022-10-22T11:17:00.718Z,22.03
2022-10-22T11:18:00.688Z,21.85
2022-10-22T11:19:00.688Z,22.58
2022-10-22T11:20:00.810Z,22.73
2022-10-22T11:21:00.690Z,23.79
2022-10-22T11:22:00.658Z,24.43
2022-10-22T11:23:18.878Z,24.89
2022-10-22T11:24:01.649Z,24.68
2022-10-22T11:25:00.638Z,24.29
2022-10-22T11:26:00.634Z,22.83
2022-10-22T11:27:00.687Z,21.85
2022-10-22T11:28:06.639Z,22.19
2022-10-22T11:29:01.596Z,21.75
2022-10-22T11:30:00.594Z,20.74
2022-10-22T11:31:00.594Z,20.08
2022-10-22T11:32:00.595Z,19.84
2022-10-22T11:33:00.565Z,19.59
2022-10-22T11:34:09.858Z,19.54
2022-10-22T11:35:01.559Z,19.35
2022-10-22T11:36:00.574Z,19.12
2022-10-22T11:37:00.533Z,19.00
2022-10-22T11:38:00.521Z,18.83
2022-10-22T11:39:00.520Z,18.96
2022-10-22T11:40:00.530Z,18.66
2022-10-22T11:41:00.498Z,18.54
2022-10-22T11:42:00.493Z,18.45
2022-10-22T11:43:00.539Z,18.31
2022-10-22T11:44:00.467Z,18.21
2022-10-22T11:45:00.464Z,18.15
2022-10-22T11:46:00.473Z,18.15
2022-10-22T11:47:00.443Z,18.26
2022-10-22T11:48:00.463Z,18.21
2022-10-22T11:49:00.433Z,18.26
2022-10-22T11:50:00.428Z,18.13
2022-10-22T11:51:00.443Z,18.23
2022-10-22T11:52:04.275Z,18.30
2022-10-22T11:53:00.570Z,18.42
2022-10-22T11:54:00.396Z,18.33
2022-10-22T11:55:00.383Z,18.46
2022-10-22T11:56:00.371Z,18.38
2022-10-22T11:57:00.381Z,18.36
2022-10-22T11:58:00.361Z,18.33
2022-10-22T11:59:00.817Z,18.28
2022-10-22T12:00:00.338Z,18.15
2022-10-22T12:01:00.466Z,18.11
2022-10-22T12:02:00.337Z,18.05
2022-10-22T12:03:00.319Z,18.02
2022-10-22T12:04:00.333Z,17.97
2022-10-22T12:05:00.296Z,17.90
2022-10-22T12:06:00.285Z,17.91
2022-10-22T12:07:00.283Z,17.97
2022-10-22T12:08:00.275Z,17.94
2022-10-22T12:09:00.329Z,18.09
2022-10-22T12:10:00.378Z,18.08
2022-10-22T12:11:00.245Z,18.09
2022-10-22T12:12:00.233Z,18.11
2022-10-22T12:13:00.262Z,18.15
2022-10-22T12:14:00.227Z,18.27
2022-10-22T12:15:00.252Z,18.26
2022-10-22T12:16:00.238Z,18.34
2022-10-22T12:17:00.213Z,18.43
2022-10-22T12:18:00.308Z,18.33
2022-10-22T12:19:00.203Z,18.52
2022-10-22T12:20:02.264Z,18.58
2022-10-22T12:21:00.171Z,18.67
2022-10-22T12:22:00.188Z,18.81
2022-10-22T12:23:00.147Z,19.01
2022-10-22T12:24:00.167Z,18.97
2022-10-22T12:25:00.167Z,19.17
2022-10-22T12:26:00.117Z,19.20
2022-10-22T12:27:00.122Z,19.12
2022-10-22T12:28:00.174Z,19.17
2022-10-22T12:29:00.107Z,19.05
2022-10-22T12:30:00.122Z,19.08
2022-10-22T12:31:00.162Z,19.31
2022-10-22T12:32:00.087Z,19.54
2022-10-22T12:33:00.111Z,19.39
2022-10-22T12:34:00.068Z,19.53
2022-10-22T12:35:00.074Z,19.60
2022-10-22T12:36:00.068Z,19.64
2022-10-22T12:37:00.091Z,19.78
2022-10-22T12:38:00.107Z,19.78
2022-10-22T12:39:00.267Z,19.77
2022-10-22T12:40:00.022Z,19.67
2022-10-22T12:41:00.009Z,19.47
2022-10-22T12:41:59.999Z,19.32
2022-10-22T12:43:00.027Z,19.12
2022-10-22T12:44:00.003Z,18.71
2022-10-22T12:44:59.972Z,18.60
2022-10-22T12:45:59.967Z,18.58
2022-10-22T12:46:59.973Z,18.48
2022-10-22T12:47:59.973Z,18.39
2022-10-22T12:48:59.946Z,18.52
2022-10-22T12:49:59.973Z,18.51
2022-10-22T12:50:59.952Z,18.48
2022-10-22T12:51:59.917Z,18.33
2022-10-22T12:52:59.921Z,18.26
2022-10-22T12:53:59.915Z,18.24
2022-10-22T12:54:59.890Z,18.15
2022-10-22T12:55:59.875Z,18.20
2022-10-22T12:56:59.959Z,18.08
2022-10-22T12:57:59.886Z,18.18